Time;durP1;ratioP1;P1;durP2;ratioP2;P2;SDS_P1;SDS_P2;PMS_P1;PMS_P2;Temp;Humidity;BMP_temperature;BMP_pressure;BME280_temperature;BME280_humidity;BME280_pressure;Samples;Min_cycle;Max_cycle;Signal;HPM_P1;HPM_P2
2022/11/11 00:01:13;;;;;;;3.83;3.53;;;9.60;73.10;9.50;97835.00;;;;5042818;28;20220;-84
2022/11/11 00:03:41;;;;;;;5.87;4.10;;;9.60;73.00;9.50;97838.00;;;;5014510;28;20228;-84
2022/11/11 00:06:12;;;;;;;4.43;3.77;;;9.50;72.90;9.50;97826.00;;;;5031564;28;20255;-84
2022/11/11 00:08:39;;;;;;;4.70;4.30;;;9.50;73.00;9.50;97823.00;;;;5032009;28;20682;-84
2022/11/11 00:11:09;;;;;;;4.30;3.67;;;9.50;73.00;9.50;97822.00;;;;5032086;28;20281;-85
2022/11/11 00:13:38;;;;;;;3.67;3.30;;;9.50;73.10;9.50;97827.00;;;;5021810;28;20197;-84
2022/11/11 00:16:10;;;;;;;4.23;3.83;;;9.50;73.00;9.50;97823.00;;;;5031726;28;20285;-85
2022/11/11 00:27:13;;;;;;;5.33;4.20;;;9.40;72.80;9.30;97813.00;;;;5007887;28;20732;-84
2022/11/11 00:29:41;;;;;;;4.80;4.17;;;9.40;72.80;9.30;97818.00;;;;5032683;28;20198;-84
2022/11/11 00:32:27;;;;;;;6.03;4.00;;;9.30;73.00;9.30;97816.00;;;;5036200;28;20232;-85
2022/11/11 00:37:43;;;;;;;4.27;3.87;;;9.30;73.00;9.30;97813.00;;;;5031830;28;20255;-85
2022/11/11 00:40:12;;;;;;;5.57;4.00;;;9.30;73.20;9.30;97810.00;;;;5032172;28;20197;-84
2022/11/11 00:42:40;;;;;;;7.43;4.40;;;9.30;73.50;9.30;97810.00;;;;5030801;28;20240;-85
2022/11/11 00:45:10;;;;;;;6.97;4.27;;;9.30;73.70;9.30;97805.00;;;;5040188;28;20692;-84
2022/11/11 00:53:18;;;;;;;4.47;3.50;;;9.30;74.20;9.30;97812.00;;;;5031846;28;20204;-85
2022/11/11 00:55:45;;;;;;;6.67;3.50;;;9.30;74.10;9.30;97815.00;;;;5033649;28;20303;-85
2022/11/11 00:58:13;;;;;;;6.67;3.83;;;9.30;74.10;9.30;97824.00;;;;5035642;28;20229;-84
2022/11/11 01:00:40;;;;;;;6.20;3.50;;;9.30;74.00;9.30;97817.00;;;;5048881;28;20235;-85
2022/11/11 01:03:08;;;;;;;3.87;3.07;;;9.30;74.10;9.30;97821.00;;;;5041814;28;20201;-84
2022/11/11 01:05:38;;;;;;;3.93;3.20;;;9.30;74.40;9.30;97824.00;;;;5034524;28;20253;-84
2022/11/11 01:08:06;;;;;;;3.97;2.87;;;9.30;74.50;9.30;97829.00;;;;5027841;28;20214;-85
2022/11/11 01:10:40;;;;;;;2.93;2.73;;;9.30;74.50;9.30;97833.00;;;;5034709;28;20261;-84
2022/11/11 01:13:16;;;;;;;3.13;2.87;;;9.30;74.40;9.40;97832.00;;;;5035509;28;20200;-83
2022/11/11 01:15:46;;;;;;;4.57;3.13;;;9.40;74.70;9.40;97828.00;;;;5037823;28;20605;-84
2022/11/11 01:18:18;;;;;;;5.07;3.10;;;9.40;74.50;9.40;97828.00;;;;5036312;28;20229;-84
2022/11/11 01:20:46;;;;;;;3.27;2.97;;;9.40;74.30;9.40;97833.00;;;;5035429;28;20189;-84
2022/11/11 01:23:14;;;;;;;4.30;3.00;;;9.40;74.80;9.40;97837.00;;;;5034315;28;20197;-84
2022/11/11 01:25:43;;;;;;;3.17;2.87;;;9.40;73.90;9.30;97837.00;;;;5033911;28;20651;-85
2022/11/11 01:28:10;;;;;;;3.67;2.83;;;9.40;73.90;9.40;97836.00;;;;5034551;28;20683;-84
2022/11/11 01:30:37;;;;;;;3.50;2.90;;;9.40;74.10;9.30;97843.00;;;;5034805;28;20232;-85
2022/11/11 01:33:05;;;;;;;3.53;2.90;;;9.40;74.10;9.30;97837.00;;;;5034985;28;20209;-84
2022/11/11 01:35:39;;;;;;;3.10;2.83;;;9.30;73.80;9.30;97829.00;;;;5043799;28;20225;-84
2022/11/11 01:38:07;;;;;;;3.70;2.90;;;9.40;73.60;9.30;97835.00;;;;5041578;28;20192;-84
2022/11/11 01:40:42;;;;;;;3.10;2.90;;;9.30;73.40;9.30;97828.00;;;;5033425;28;20207;-83
2022/11/11 01:43:23;;;;;;;2.90;2.70;;;9.30;73.30;9.30;97821.00;;;;5038233;28;20609;-83
2022/11/11 01:45:58;;;;;;;3.20;2.90;;;9.30;73.20;9.20;97825.00;;;;5049129;28;20252;-84
2022/11/11 01:51:34;;;;;;;3.10;2.90;;;9.30;73.00;9.20;97815.00;;;;5039797;28;20644;-84
2022/11/11 01:54:08;;;;;;;3.53;2.73;;;9.20;72.80;9.10;97814.00;;;;5043494;28;20327;-84
2022/11/11 01:56:38;;;;;;;2.90;2.70;;;9.20;72.90;9.10;97809.00;;;;5034020;28;20229;-84
2022/11/11 01:59:11;;;;;;;4.07;2.90;;;9.20;73.20;9.10;97801.00;;;;5034229;28;20225;-84
2022/11/11 02:01:40;;;;;;;3.13;2.83;;;9.10;72.90;9.00;97806.00;;;;5035221;28;20233;-83
2022/11/11 02:07:00;;;;;;;4.40;2.50;;;9.10;72.70;9.00;97804.00;;;;5024494;28;20228;-84
2022/11/11 02:09:27;;;;;;;2.73;2.53;;;9.00;72.60;8.90;97801.00;;;;5015095;28;20388;-85
2022/11/11 02:14:47;;;;;;;2.93;2.70;;;9.00;72.70;8.90;97813.00;;;;5040074;28;20347;-84
2022/11/11 02:17:17;;;;;;;2.50;2.30;;;9.00;72.70;8.90;97812.00;;;;5033543;28;20201;-84
2022/11/11 02:19:53;;;;;;;3.47;2.60;;;8.90;72.70;8.80;97813.00;;;;5033255;28;20296;-84
2022/11/11 02:22:31;;;;;;;3.77;2.80;;;8.90;72.70;8.80;97811.00;;;;5028539;28;20607;-83
2022/11/11 02:25:03;;;;;;;3.63;2.77;;;8.90;72.60;8.80;97815.00;;;;5033035;28;20263;-84
2022/11/11 02:27:34;;;;;;;2.60;2.40;;;8.90;72.80;8.80;97822.00;;;;5032755;28;20304;-83
2022/11/11 02:30:05;;;;;;;2.37;2.17;;;8.80;72.90;8.70;97818.00;;;;5033269;28;20221;-84
2022/11/11 02:32:33;;;;;;;2.63;2.40;;;8.80;73.00;8.70;97819.00;;;;5044957;28;20228;-85
2022/11/11 02:35:00;;;;;;;4.20;2.63;;;9.90;73.80;8.70;97831.00;;;;5044797;28;20270;-85
2022/11/11 02:37:28;;;;;;;4.23;2.70;;;8.80;73.30;8.70;97820.00;;;;5035239;28;20620;-84
2022/11/11 02:40:06;;;;;;;2.90;2.33;;;8.80;73.30;8.70;97823.00;;;;5032162;28;20205;-84
2022/11/11 02:42:34;;;;;;;4.90;2.87;;;8.80;73.30;8.70;97825.00;;;;5033299;28;20197;-84
2022/11/11 02:45:01;;;;;;;4.07;3.10;;;8.80;73.40;8.70;97821.00;;;;5033021;28;20217;-84
2022/11/11 02:47:29;;;;;;;6.07;2.53;;;8.80;73.50;8.70;97838.00;;;;5040504;28;20315;-84
2022/11/11 02:49:56;;;;;;;5.30;2.63;;;8.80;73.70;8.70;97833.00;;;;5037887;28;20666;-84
2022/11/11 02:52:23;;;;;;;6.87;2.90;;;8.80;74.10;8.70;97843.00;;;;5027811;28;20198;-84
2022/11/11 02:54:51;;;;;;;6.03;2.80;;;8.80;74.50;8.80;97834.00;;;;5022122;28;20327;-83
2022/11/11 02:57:19;;;;;;;4.67;2.80;;;8.80;74.50;8.80;97841.00;;;;5043934;28;20281;-84
2022/11/11 02:59:47;;;;;;;11.43;3.30;;;8.80;74.60;8.80;97843.00;;;;5035639;28;20205;-84
2022/11/11 03:02:14;;;;;;;6.07;2.70;;;8.80;74.60;8.70;97843.00;;;;5037913;28;20200;-83
2022/11/11 03:04:41;;;;;;;4.73;3.07;;;8.80;74.40;8.70;97844.00;;;;5033018;28;20209;-84
2022/11/11 03:07:09;;;;;;;7.67;2.80;;;8.80;74.20;8.70;97848.00;;;;5032077;28;20304;-84
2022/11/11 03:09:36;;;;;;;4.57;2.50;;;8.80;74.20;8.70;97848.00;;;;5017593;28;20197;-83
2022/11/11 03:12:04;;;;;;;3.93;2.37;;;8.80;74.20;8.70;97862.00;;;;5032750;28;20805;-84
2022/11/11 03:14:32;;;;;;;5.03;2.43;;;8.70;74.10;8.70;97863.00;;;;5033315;28;20225;-84
2022/11/11 03:19:44;;;;;;;2.77;2.57;;;8.70;74.10;8.60;97869.00;;;;5035179;28;20192;-83
2022/11/11 03:22:10;;;;;;;2.40;2.17;;;8.70;74.00;8.60;97857.00;;;;5051598;28;20330;-84
2022/11/11 03:27:22;;;;;;;2.70;2.50;;;8.70;73.90;8.60;97867.00;;;;5036648;28;20333;-84
2022/11/11 03:29:51;;;;;;;2.40;2.20;;;8.60;73.70;8.60;97864.00;;;;5032501;28;20224;-83
2022/11/11 03:32:18;;;;;;;3.50;2.63;;;8.70;73.70;8.60;97869.00;;;;5034912;28;20259;-84
2022/11/11 03:34:45;;;;;;;2.20;2.10;;;8.60;73.60;8.60;97863.00;;;;5050116;28;20713;-84
2022/11/11 03:39:53;;;;;;;2.40;2.20;;;8.70;73.50;8.50;97869.00;;;;4999929;28;20579;-85
2022/11/11 03:42:21;;;;;;;2.80;2.60;;;8.60;73.50;8.50;97874.00;;;;5044975;28;20291;-84
2022/11/11 03:44:49;;;;;;;2.67;2.40;;;8.60;73.40;8.50;97872.00;;;;5040984;28;20229;-84
2022/11/11 03:47:16;;;;;;;4.73;2.33;;;8.60;73.60;8.50;97880.00;;;;5052253;28;20659;-84
2022/11/11 03:49:44;;;;;;;3.27;2.60;;;8.60;73.80;8.50;97878.00;;;;5032697;28;20201;-84
2022/11/11 03:52:13;;;;;;;2.70;2.23;;;8.60;74.90;8.50;97887.00;;;;5036487;28;20207;-84
2022/11/11 03:54:40;;;;;;;2.67;2.47;;;8.60;74.20;8.50;97878.00;;;;5032465;28;20353;-83
2022/11/11 03:59:53;;;;;;;5.43;2.80;;;8.60;74.20;8.50;97870.00;;;;5031659;28;20330;-84
2022/11/11 04:10:36;;;;;;;30.77;3.80;;;8.60;74.60;8.60;97869.00;;;;5022867;28;20252;-84
2022/11/11 04:16:07;;;;;;;13.60;3.13;;;8.60;75.30;8.60;97861.00;;;;5042324;28;20279;-83
2022/11/11 04:25:47;;;;;;;7.93;2.30;;;8.70;75.70;8.60;97861.00;;;;5029971;28;20236;-85
2022/11/11 04:26:55;;;;;;;4.13;2.43;;;8.70;75.70;8.60;97864.00;;;;5044876;28;20588;-84
2022/11/11 04:29:31;;;;;;;5.30;1.80;;;8.70;75.80;8.70;97855.00;;;;5032132;28;20328;-85
2022/11/11 04:34:48;;;;;;;5.00;2.20;;;8.70;76.10;8.70;97867.00;;;;5043753;28;20240;-84
2022/11/11 04:37:16;;;;;;;11.60;2.20;;;8.80;76.10;8.70;97867.00;;;;5038316;28;20235;-85
2022/11/11 04:42:30;;;;;;;4.83;2.30;;;8.80;76.10;8.70;97869.00;;;;5035591;28;20669;-83
2022/11/11 04:47:59;;;;;;;6.47;1.80;;;8.80;76.10;8.70;97861.00;;;;5040314;28;20244;-84
2022/11/11 04:50:29;;;;;;;3.50;1.90;;;8.80;76.20;8.70;97860.00;;;;5035081;28;20264;-85
2022/11/11 04:52:57;;;;;;;6.10;1.77;;;8.80;76.00;8.70;97869.00;;;;5034599;28;20217;-84
2022/11/11 04:58:10;;;;;;;4.27;2.03;;;8.80;76.00;8.70;97872.00;;;;5034728;28;20318;-85
2022/11/11 05:00:37;;;;;;;2.53;1.83;;;8.80;76.00;8.70;97870.00;;;;5029453;28;20286;-85
2022/11/11 05:03:15;;;;;;;2.67;2.00;;;8.80;76.00;8.70;97867.00;;;;5034502;28;20666;-84
2022/11/11 05:11:14;;;;;;;5.27;2.10;;;8.80;76.00;8.80;97875.00;;;;5027306;28;20262;-84
2022/11/11 05:22:11;;;;;;;2.00;1.90;;;8.80;76.00;8.80;97899.00;;;;5033293;28;20277;-85
2022/11/11 05:27:23;;;;;;;4.47;1.90;;;8.90;76.10;8.80;97891.00;;;;5037646;28;20693;-84
2022/11/11 05:29:50;;;;;;;3.27;1.97;;;8.90;76.00;8.80;97894.00;;;;5025842;28;20272;-83
2022/11/11 05:32:18;;;;;;;2.57;2.37;;;8.90;75.90;8.80;97891.00;;;;5030918;28;20201;-83
2022/11/11 05:34:47;;;;;;;3.70;2.20;;;8.90;76.00;8.80;97882.00;;;;5036080;28;20257;-84
2022/11/11 05:37:15;;;;;;;2.07;1.97;;;8.90;76.10;8.80;97886.00;;;;5032243;28;20296;-83
2022/11/11 05:39:43;;;;;;;4.67;2.17;;;8.90;76.10;8.80;97900.00;;;;5033476;28;20209;-83
2022/11/11 05:42:10;;;;;;;5.13;1.87;;;8.90;76.10;8.80;97901.00;;;;5034292;28;20232;-83
2022/11/11 05:44:38;;;;;;;2.30;2.10;;;8.90;76.10;8.90;97903.00;;;;5031450;28;20244;-82
2022/11/11 05:47:06;;;;;;;4.03;1.67;;;8.90;76.10;8.80;97911.00;;;;5038893;28;20851;-83
2022/11/11 05:49:33;;;;;;;3.77;1.77;;;8.90;76.10;8.80;97907.00;;;;5031587;28;20276;-83
2022/11/11 05:52:02;;;;;;;3.70;2.00;;;8.90;76.10;8.80;97913.00;;;;5038071;28;20275;-83
2022/11/11 05:54:30;;;;;;;1.93;1.83;;;8.90;76.10;8.90;97916.00;;;;5026247;28;20217;-83
2022/11/11 05:56:57;;;;;;;4.03;2.33;;;8.90;75.90;8.90;97917.00;;;;5033556;28;20197;-82
2022/11/11 05:59:24;;;;;;;2.57;2.13;;;8.90;75.90;8.90;97916.00;;;;5030533;28;20198;-84
2022/11/11 06:01:52;;;;;;;3.60;2.43;;;8.90;75.70;8.80;97924.00;;;;5032017;28;20221;-83
2022/11/11 06:04:19;;;;;;;2.33;2.20;;;8.90;75.70;8.80;97922.00;;;;5027470;28;20304;-83
2022/11/11 06:06:46;;;;;;;3.70;2.20;;;8.90;75.50;8.80;97947.00;;;;5033058;28;20300;-83
2022/11/11 06:09:18;;;;;;;3.33;1.77;;;8.90;75.50;8.80;97945.00;;;;5033350;28;20289;-83
2022/11/11 06:11:45;;;;;;;2.40;2.00;;;8.90;75.50;8.80;97956.00;;;;5033361;28;20197;-81
2022/11/11 06:14:12;;;;;;;2.00;1.90;;;8.90;75.50;8.80;97960.00;;;;5032464;28;20225;-81
2022/11/11 06:16:39;;;;;;;2.30;2.10;;;8.90;75.40;8.80;97968.00;;;;5033818;28;20228;-81
2022/11/11 06:19:06;;;;;;;1.90;1.80;;;8.90;75.20;8.90;97958.00;;;;5037613;28;20288;-82
2022/11/11 06:21:55;;;;;;;1.90;1.80;;;8.90;75.10;8.90;97972.00;;;;5033804;28;20628;-82
2022/11/11 06:24:23;;;;;;;1.70;1.60;;;8.90;75.20;8.90;97977.00;;;;5044213;28;20224;-81
2022/11/11 06:26:49;;;;;;;2.03;1.93;;;8.90;75.20;8.90;97969.00;;;;5044367;28;20263;-82
2022/11/11 06:29:16;;;;;;;2.20;2.10;;;8.90;75.10;8.90;97979.00;;;;5034045;28;20185;-82
2022/11/11 06:31:45;;;;;;;2.00;1.90;;;8.90;75.20;8.90;97985.00;;;;5042636;28;20623;-82
2022/11/11 06:34:12;;;;;;;1.97;1.87;;;8.90;75.20;8.90;97985.00;;;;5037645;28;20227;-82
2022/11/11 06:36:39;;;;;;;2.10;2.00;;;8.90;75.40;8.90;97991.00;;;;5043409;28;20201;-82
2022/11/11 06:39:07;;;;;;;1.90;1.80;;;8.90;75.40;8.90;97990.00;;;;5042712;28;20204;-83
2022/11/11 06:41:35;;;;;;;2.20;2.00;;;8.90;75.50;8.90;97997.00;;;;5041703;28;20650;-82
2022/11/11 06:44:02;;;;;;;2.37;2.10;;;8.90;75.50;9.00;98004.00;;;;5034568;28;20221;-83
2022/11/11 06:46:30;;;;;;;3.83;2.30;;;8.90;75.50;9.00;98005.00;;;;5033641;28;20288;-83
2022/11/11 06:48:57;;;;;;;2.20;2.10;;;8.90;75.50;9.00;98007.00;;;;5021967;28;20210;-83
2022/11/11 06:51:24;;;;;;;2.27;2.13;;;8.90;75.50;9.00;98011.00;;;;5014429;28;20730;-83
2022/11/11 06:53:51;;;;;;;2.47;2.37;;;8.90;75.50;9.00;98010.00;;;;5036381;28;20300;-83
2022/11/11 06:56:18;;;;;;;2.30;2.10;;;8.90;75.50;9.00;98016.00;;;;5037947;28;20232;-83
2022/11/11 06:58:47;;;;;;;2.43;2.17;;;8.90;75.50;9.00;98022.00;;;;5033978;28;20225;-83
2022/11/11 07:01:14;;;;;;;2.30;2.20;;;9.00;75.70;9.00;98013.00;;;;5037546;28;20622;-83
2022/11/11 07:03:42;;;;;;;2.13;2.00;;;9.00;75.50;9.00;98016.00;;;;5046351;28;20200;-83
2022/11/11 07:06:09;;;;;;;1.80;1.70;;;9.00;75.30;9.00;98017.00;;;;5051422;28;20583;-83
2022/11/11 07:08:36;;;;;;;1.90;1.80;;;9.00;75.30;9.10;98021.00;;;;5032202;28;20739;-83
2022/11/11 07:11:04;;;;;;;1.73;1.63;;;9.00;75.40;9.10;98015.00;;;;5025064;28;20251;-83
2022/11/11 07:13:31;;;;;;;1.80;1.70;;;9.00;75.30;9.10;98016.00;;;;5032719;28;20659;-83
2022/11/11 07:16:00;;;;;;;1.90;1.80;;;9.00;75.50;9.10;98017.00;;;;5052046;28;20235;-83
2022/11/11 07:18:27;;;;;;;1.70;1.60;;;9.00;75.60;9.10;98011.00;;;;5044656;28;20263;-83
2022/11/11 07:20:54;;;;;;;1.50;1.40;;;9.00;75.70;9.10;98021.00;;;;5033886;28;20653;-83
2022/11/11 07:23:21;;;;;;;1.53;1.43;;;9.10;75.80;9.10;98021.00;;;;5032579;28;20229;-82
2022/11/11 07:25:49;;;;;;;2.00;1.90;;;9.10;75.70;9.20;98014.00;;;;5031285;28;20247;-82
2022/11/11 07:28:16;;;;;;;2.27;2.00;;;9.10;75.50;9.20;98013.00;;;;5031075;28;21068;-83
2022/11/11 07:30:43;;;;;;;2.50;2.30;;;9.10;75.50;9.20;98009.00;;;;5026836;28;20339;-84
2022/11/11 07:33:12;;;;;;;2.03;1.93;;;9.10;75.40;9.30;98011.00;;;;5027119;28;20228;-83
2022/11/11 07:35:39;;;;;;;2.30;2.20;;;9.10;75.30;9.30;98013.00;;;;5027679;28;20299;-83
2022/11/11 07:38:06;;;;;;;3.30;3.10;;;9.20;75.40;9.30;98015.00;;;;5031314;28;20231;-83
2022/11/11 07:40:33;;;;;;;2.70;2.50;;;9.20;75.40;9.30;98015.00;;;;5031806;28;20244;-83
2022/11/11 07:43:00;;;;;;;3.00;2.00;;;9.20;75.30;9.30;98023.00;;;;5032481;28;20233;-83
2022/11/11 07:45:27;;;;;;;2.00;1.90;;;9.20;75.40;9.40;98012.00;;;;5033110;28;20632;-83
2022/11/11 07:47:54;;;;;;;1.90;1.80;;;9.20;75.50;9.30;98007.00;;;;5028108;28;20292;-83
2022/11/11 07:50:23;;;;;;;2.00;1.90;;;9.20;75.40;9.40;98011.00;;;;5019576;28;20608;-83
2022/11/11 07:52:51;;;;;;;2.00;1.80;;;9.30;75.50;9.40;98002.00;;;;5032871;28;20292;-83
2022/11/11 07:55:18;;;;;;;2.20;2.10;;;9.30;75.50;9.40;98001.00;;;;5032762;28;20240;-83
2022/11/11 07:57:45;;;;;;;2.20;2.00;;;9.30;75.50;9.40;98001.00;;;;5032245;28;20232;-84
2022/11/11 08:00:14;;;;;;;2.93;2.40;;;9.30;75.50;9.50;97999.00;;;;5028384;28;20263;-83
2022/11/11 08:02:47;;;;;;;5.03;3.10;;;9.40;75.70;9.50;97997.00;;;;5032168;28;20225;-83
2022/11/11 08:05:14;;;;;;;2.87;2.67;;;9.40;75.80;9.50;98002.00;;;;5031256;28;20307;-84
2022/11/11 08:07:43;;;;;;;2.67;2.47;;;9.40;75.90;9.60;98000.00;;;;5037179;28;20266;-84
2022/11/11 08:10:11;;;;;;;2.90;2.70;;;9.50;75.80;9.60;97994.00;;;;5013442;28;20221;-83
2022/11/11 08:15:28;;;;;;;2.80;2.20;;;9.50;75.80;9.70;97997.00;;;;4974212;28;20302;-84
2022/11/11 08:17:55;;;;;;;2.20;2.00;;;9.50;75.80;9.70;97993.00;;;;5037969;28;20228;-83
2022/11/11 08:20:22;;;;;;;2.13;2.03;;;9.60;75.90;9.70;97999.00;;;;5049420;28;20886;-83
2022/11/11 08:22:54;;;;;;;2.40;2.20;;;9.60;75.90;9.80;97988.00;;;;5025151;28;20236;-83
2022/11/11 08:25:22;;;;;;;2.70;2.50;;;9.60;75.90;9.80;97994.00;;;;5041452;28;20224;-83
2022/11/11 08:27:49;;;;;;;2.87;2.53;;;9.70;76.10;9.90;97993.00;;;;5033973;28;20225;-82
2022/11/11 08:30:16;;;;;;;3.00;2.80;;;9.70;76.20;9.90;97992.00;;;;5031897;28;20236;-83
2022/11/11 08:32:43;;;;;;;3.20;3.00;;;9.70;76.30;10.00;98000.00;;;;5032207;28;20300;-83
2022/11/11 08:35:11;;;;;;;2.97;2.77;;;9.80;76.30;10.00;98001.00;;;;5031817;28;20312;-84
2022/11/11 08:37:38;;;;;;;3.90;3.20;;;9.90;76.20;10.10;97992.00;;;;5032203;28;20225;-83
2022/11/11 08:40:08;;;;;;;3.50;3.20;;;9.90;76.20;10.10;97990.00;;;;5031734;28;20224;-83
2022/11/11 08:42:35;;;;;;;3.60;3.40;;;9.90;76.20;10.20;97987.00;;;;5043758;28;20296;-84
2022/11/11 08:45:03;;;;;;;3.20;2.90;;;10.00;76.40;10.20;97992.00;;;;5041666;28;20712;-84
2022/11/11 08:47:30;;;;;;;3.47;3.17;;;10.00;76.30;10.30;97997.00;;;;5038744;28;20686;-84
2022/11/11 08:49:57;;;;;;;4.70;2.97;;;10.10;76.50;10.40;98007.00;;;;5032328;28;20284;-84
2022/11/11 08:52:24;;;;;;;3.50;3.20;;;10.10;76.50;10.40;98004.00;;;;5030431;28;20232;-84
2022/11/11 08:54:52;;;;;;;2.80;2.60;;;10.20;76.60;10.50;98009.00;;;;5031041;28;20252;-84
2022/11/11 08:57:20;;;;;;;3.17;2.87;;;10.30;76.60;10.60;98017.00;;;;5031405;28;20225;-84
2022/11/11 08:59:48;;;;;;;3.37;3.07;;;10.30;76.60;10.60;98026.00;;;;5032558;28;20571;-84
2022/11/11 09:02:15;;;;;;;3.33;3.13;;;10.40;76.70;10.70;98034.00;;;;5031739;28;20566;-84
2022/11/11 09:04:43;;;;;;;3.70;3.40;;;10.50;76.90;10.80;98031.00;;;;5039779;28;20664;-84
2022/11/11 09:07:11;;;;;;;3.43;3.23;;;10.50;77.00;10.80;98027.00;;;;5031983;28;20658;-84
2022/11/11 09:09:38;;;;;;;3.60;3.37;;;10.60;77.00;10.90;98029.00;;;;5028250;28;20244;-84
2022/11/11 09:12:06;;;;;;;4.10;3.80;;;10.70;77.20;11.10;98028.00;;;;5049224;28;20919;-83
2022/11/11 09:14:34;;;;;;;3.30;3.00;;;10.70;77.30;11.20;98025.00;;;;5040700;28;20651;-83
2022/11/11 09:17:02;;;;;;;4.00;3.60;;;10.80;77.40;11.20;98028.00;;;;5041191;28;20205;-83
2022/11/11 09:19:29;;;;;;;3.50;3.30;;;10.90;77.30;11.30;98018.00;;;;5047249;28;20211;-83
2022/11/11 09:21:56;;;;;;;4.60;2.90;;;11.00;77.40;11.40;98027.00;;;;5048040;28;20233;-83
2022/11/11 09:24:23;;;;;;;5.07;3.40;;;11.10;77.40;11.50;98026.00;;;;5036029;28;20245;-84
2022/11/11 09:26:51;;;;;;;3.60;3.30;;;11.10;77.20;11.50;98021.00;;;;5030713;28;20682;-82
2022/11/11 09:29:19;;;;;;;4.30;3.70;;;11.20;77.30;11.60;98029.00;;;;5035310;28;20300;-83
2022/11/11 09:31:47;;;;;;;3.90;3.60;;;11.30;77.20;11.70;98031.00;;;;5038975;28;20197;-83
2022/11/11 09:34:15;;;;;;;3.90;3.60;;;11.40;77.30;11.80;98046.00;;;;5034979;28;20244;-83
2022/11/11 09:36:42;;;;;;;3.80;3.50;;;11.40;77.90;11.80;98050.00;;;;5035401;28;20201;-83
2022/11/11 09:39:10;;;;;;;3.97;3.67;;;11.50;77.20;11.90;98054.00;;;;5034969;28;20284;-83
2022/11/11 09:41:52;;;;;;;4.10;3.60;;;11.60;77.10;12.00;98051.00;;;;5051953;28;20219;-83
2022/11/11 09:44:42;;;;;;;3.80;3.50;;;11.70;77.20;12.10;98049.00;;;;5036161;28;20291;-83
2022/11/11 09:47:20;;;;;;;3.33;3.03;;;11.80;77.20;12.10;98044.00;;;;5035309;28;20193;-83
2022/11/11 09:50:02;;;;;;;3.80;3.43;;;11.80;77.10;12.20;98041.00;;;;5036174;28;20244;-83
2022/11/11 09:52:37;;;;;;;3.67;3.47;;;11.90;77.10;12.30;98040.00;;;;5035498;28;20220;-83
2022/11/11 09:55:16;;;;;;;3.63;3.33;;;12.00;77.20;12.40;98037.00;;;;5035296;28;20308;-83
2022/11/11 09:57:52;;;;;;;3.50;3.20;;;12.10;77.40;12.60;98037.00;;;;5024089;28;20554;-83
2022/11/11 10:00:23;;;;;;;3.57;3.27;;;12.20;77.60;12.70;98034.00;;;;5037785;28;20185;-83
2022/11/11 10:02:59;;;;;;;4.00;3.70;;;12.30;77.70;12.80;98044.00;;;;5035769;28;20221;-83
2022/11/11 10:05:34;;;;;;;3.47;3.27;;;12.50;77.80;13.00;98040.00;;;;5037531;28;20568;-84
2022/11/11 10:08:07;;;;;;;3.70;3.40;;;12.60;77.60;13.10;98043.00;;;;5043736;28;20303;-83
2022/11/11 10:10:44;;;;;;;3.63;3.33;;;12.70;77.40;13.20;98054.00;;;;5052615;28;20228;-83
2022/11/11 10:13:16;;;;;;;3.93;3.63;;;12.80;77.30;13.30;98055.00;;;;5037779;28;20263;-83
2022/11/11 10:16:00;;;;;;;3.77;3.43;;;12.90;77.20;13.40;98057.00;;;;5034461;28;20236;-83
2022/11/11 10:18:49;;;;;;;3.30;3.03;;;13.00;77.00;13.50;98055.00;;;;5025246;28;20647;-83
2022/11/11 10:21:25;;;;;;;3.40;2.97;;;13.10;77.00;13.60;98057.00;;;;5015889;28;20210;-83
2022/11/11 10:24:00;;;;;;;3.77;3.47;;;13.20;77.10;13.60;98048.00;;;;5040231;28;20836;-83
2022/11/11 10:26:38;;;;;;;3.37;3.17;;;13.30;77.00;13.80;98054.00;;;;5053681;28;20196;-83
2022/11/11 10:29:14;;;;;;;3.13;2.93;;;13.40;76.80;13.80;98061.00;;;;5016218;28;20246;-83
2022/11/11 10:31:44;;;;;;;3.37;3.17;;;13.50;76.70;13.90;98062.00;;;;5044368;28;20232;-83
2022/11/11 10:34:17;;;;;;;3.17;2.97;;;13.60;76.70;14.00;98060.00;;;;5040250;28;20218;-84
2022/11/11 10:36:49;;;;;;;3.10;2.90;;;13.60;76.60;14.00;98061.00;;;;5028480;28;20193;-83
2022/11/11 10:39:27;;;;;;;3.20;2.87;;;13.70;76.50;14.10;98064.00;;;;5015027;28;20214;-84
2022/11/11 10:41:54;;;;;;;3.70;3.40;;;13.80;76.40;14.20;98062.00;;;;5017862;28;20206;-83
2022/11/11 10:44:25;;;;;;;3.20;3.00;;;13.80;76.10;14.20;98059.00;;;;5054326;28;20259;-83
2022/11/11 10:47:10;;;;;;;3.13;2.93;;;13.90;76.00;14.20;98061.00;;;;5054095;28;20221;-83
2022/11/11 10:49:49;;;;;;;3.10;2.90;;;13.90;75.80;14.30;98068.00;;;;5032844;28;20236;-83
2022/11/11 10:52:24;;;;;;;2.83;2.50;;;14.00;75.90;14.40;98059.00;;;;5035156;28;20189;-83
2022/11/11 10:54:59;;;;;;;2.37;2.27;;;14.00;75.90;14.40;98056.00;;;;5049447;28;20263;-83
2022/11/11 10:57:35;;;;;;;3.20;3.00;;;14.10;75.90;14.50;98054.00;;;;5023300;28;20204;-84
2022/11/11 11:00:06;;;;;;;2.77;2.57;;;14.10;75.50;14.50;98051.00;;;;5039200;28;20323;-83
2022/11/11 11:02:42;;;;;;;2.50;2.40;;;14.20;75.20;14.50;98046.00;;;;5036792;28;20247;-83
2022/11/11 11:05:19;;;;;;;2.87;2.67;;;14.20;75.10;14.60;98048.00;;;;5042722;28;20290;-82
2022/11/11 11:07:53;;;;;;;2.90;2.60;;;14.20;74.90;14.60;98055.00;;;;5034745;28;20186;-83
2022/11/11 11:10:29;;;;;;;2.73;2.53;;;14.30;75.00;14.70;98062.00;;;;5033136;28;20236;-83
2022/11/11 11:13:06;;;;;;;2.80;2.60;;;14.30;74.90;14.70;98058.00;;;;5030399;28;20217;-84
2022/11/11 11:15:41;;;;;;;2.67;2.47;;;14.40;74.90;14.80;98051.00;;;;5023988;28;20255;-84
2022/11/11 11:18:13;;;;;;;2.40;2.20;;;14.40;75.00;14.80;98047.00;;;;5037696;28;20229;-84
2022/11/11 11:20:57;;;;;;;2.70;2.47;;;14.40;75.10;14.90;98038.00;;;;5032164;28;20213;-84
2022/11/11 11:23:40;;;;;;;2.37;2.23;;;14.50;75.10;14.90;98034.00;;;;5026834;28;20575;-84
2022/11/11 11:26:09;;;;;;;2.13;2.03;;;14.50;74.50;14.90;98036.00;;;;5025481;28;20292;-84
2022/11/11 11:28:53;;;;;;;2.50;2.30;;;14.60;74.60;15.00;98030.00;;;;5037794;28;20725;-84
2022/11/11 11:31:36;;;;;;;2.40;2.30;;;14.60;75.20;15.00;98026.00;;;;5040248;28;20223;-84
2022/11/11 11:34:04;;;;;;;2.10;2.00;;;14.60;74.30;14.90;98033.00;;;;5027337;28;20307;-85
2022/11/11 11:36:33;;;;;;;2.37;2.17;;;14.60;74.30;14.90;98038.00;;;;5038004;28;20198;-84
2022/11/11 11:39:00;;;;;;;2.23;2.03;;;14.60;74.20;14.90;98043.00;;;;5032549;28;20229;-84
2022/11/11 11:41:39;;;;;;;2.10;2.00;;;14.60;73.90;15.00;98041.00;;;;5032020;28;20251;-84
2022/11/11 11:44:26;;;;;;;2.30;2.20;;;14.70;73.80;15.00;98050.00;;;;5031279;28;20248;-84
2022/11/11 11:47:08;;;;;;;2.07;1.97;;;14.70;73.80;15.00;98052.00;;;;5040864;28;20197;-84
2022/11/11 11:50:02;;;;;;;2.10;2.00;;;14.60;74.00;15.00;98040.00;;;;5033671;28;20229;-84
2022/11/11 11:52:48;;;;;;;2.03;1.93;;;14.70;73.70;15.00;98033.00;;;;5038762;28;20216;-84
2022/11/11 11:55:21;;;;;;;2.07;1.83;;;14.70;73.80;15.00;98033.00;;;;5020717;28;20209;-84
2022/11/11 11:58:09;;;;;;;2.53;2.30;;;14.70;73.90;15.00;98021.00;;;;5034258;28;20700;-84
2022/11/11 12:00:51;;;;;;;1.90;1.80;;;14.70;73.70;15.00;98028.00;;;;5034428;28;20280;-84
2022/11/11 12:04:11;;;;;;;2.40;2.20;;;14.70;73.50;15.00;98037.00;;;;5033590;28;20189;-84
2022/11/11 12:06:54;;;;;;;1.80;1.70;;;14.70;72.90;15.10;98031.00;;;;5032111;28;20225;-84
2022/11/11 12:09:41;;;;;;;1.87;1.77;;;14.70;73.40;15.00;98025.00;;;;5033538;28;20596;-84
2022/11/11 12:12:24;;;;;;;1.63;1.53;;;14.70;73.20;15.10;98024.00;;;;5014535;28;20586;-84
2022/11/11 12:15:19;;;;;;;3.03;1.93;;;14.80;73.30;15.10;98029.00;;;;5015923;28;20296;-82
2022/11/11 12:18:01;;;;;;;1.70;1.60;;;14.80;73.00;15.10;98026.00;;;;5038687;28;20251;-83
2022/11/11 12:20:36;;;;;;;2.40;2.20;;;14.80;73.10;15.20;98024.00;;;;5031411;28;20200;-84
2022/11/11 12:23:33;;;;;;;1.83;1.73;;;14.80;73.20;15.20;98027.00;;;;5029536;28;20189;-83
2022/11/11 12:26:13;;;;;;;1.70;1.60;;;14.80;72.90;15.20;98029.00;;;;5034939;28;20292;-83
2022/11/11 12:29:04;;;;;;;1.90;1.67;;;14.80;73.20;15.20;98027.00;;;;5046738;28;20603;-83
2022/11/11 12:31:54;;;;;;;2.07;1.97;;;14.90;73.50;15.20;98017.00;;;;5016633;28;20193;-82
2022/11/11 12:35:03;;;;;;;2.43;2.20;;;14.90;73.50;15.30;98023.00;;;;5030098;28;20241;-80
2022/11/11 12:37:45;;;;;;;2.03;1.93;;;14.90;73.20;15.30;98018.00;;;;5024626;28;20228;-81
2022/11/11 12:40:26;;;;;;;2.60;2.40;;;14.90;73.30;15.30;98013.00;;;;5028786;28;20284;-83
2022/11/11 12:43:14;;;;;;;2.00;1.80;;;15.00;73.30;15.30;98032.00;;;;5029883;28;20288;-82
2022/11/11 12:45:51;;;;;;;2.77;2.57;;;15.00;73.30;15.40;98028.00;;;;5031619;28;20560;-83
2022/11/11 12:48:47;;;;;;;3.07;2.87;;;15.00;73.50;15.40;98012.00;;;;5032793;28;20212;-82